Terminal Aerodrome Forecast
Issued by NWS

Home | Current Version | Previous Version | Graphics & Text | Print | Product List | Glossary On
Versions: 1 2 3 4 5 6 7 8 9 10 11 12 13 14 15 16 17 18 19
241
FTUS41 KCLE 231724
TAFFDY
TAF
KFDY 231724Z 2318/2418 14007KT P6SM SCT120 BKN200
     FM240800 11006KT P6SM BKN050
     FM241400 13006KT 6SM -SHRA VCTS BKN040CB=

USA.gov is the U.S. government's official web portal to all federal, state and local government web resources and services.